createdAt,value
2018-02-03T00:01:42.578Z,13.40
2018-02-03T00:04:08.785Z,13.62
2018-02-03T00:06:35.832Z,12.63
2018-02-03T00:09:03.857Z,11.50
2018-02-03T00:11:31.172Z,9.57
2018-02-03T00:13:57.401Z,9.63
2018-02-03T00:16:23.650Z,8.40
2018-02-03T00:18:50.387Z,8.27
2018-02-03T00:21:16.611Z,7.20
2018-02-03T00:23:42.824Z,8.00
2018-02-03T00:26:09.006Z,8.40
2018-02-03T00:28:35.671Z,8.88
2018-02-03T00:31:03.394Z,8.07
2018-02-03T00:33:29.931Z,6.70
2018-02-03T00:35:56.898Z,8.95
2018-02-03T00:38:24.468Z,8.10
2018-02-03T00:40:51.426Z,7.65
2018-02-03T00:43:18.183Z,7.82
2018-02-03T00:45:44.417Z,9.13
2018-02-03T00:48:10.617Z,7.20
2018-02-03T00:50:38.309Z,7.85
2018-02-03T00:53:04.558Z,7.80
2018-02-03T00:55:31.044Z,8.38
2018-02-03T00:57:59.009Z,6.05
2018-02-03T01:00:25.245Z,6.85
2018-02-03T01:02:51.443Z,7.80
2018-02-03T01:05:18.887Z,7.80
2018-02-03T01:07:45.093Z,7.40
2018-02-03T01:10:11.716Z,7.37
2018-02-03T01:12:38.751Z,5.75
2018-02-03T01:15:04.958Z,7.50
2018-02-03T01:17:33.242Z,7.47
2018-02-03T01:20:00.041Z,6.87
2018-02-03T01:22:26.450Z,9.13
2018-02-03T01:24:53.275Z,8.15
2018-02-03T01:27:20.040Z,7.80
2018-02-03T01:29:47.223Z,6.28
2018-02-03T01:32:14.170Z,6.80
2018-02-03T01:34:41.134Z,7.65
2018-02-03T01:37:07.333Z,7.20
2018-02-03T01:39:33.501Z,7.20
2018-02-03T01:42:00.376Z,6.50
2018-02-03T01:44:27.678Z,7.30
2018-02-03T01:46:54.305Z,7.72
2018-02-03T01:49:21.866Z,5.70
2018-02-03T01:51:49.778Z,8.30
2018-02-03T01:54:18.107Z,7.30
2018-02-03T01:56:44.916Z,7.25
2018-02-03T01:59:12.057Z,7.80
2018-02-03T02:01:38.246Z,6.22
2018-02-03T02:04:04.892Z,8.40
2018-02-03T02:06:32.050Z,7.37
2018-02-03T02:08:58.618Z,8.43
2018-02-03T02:11:25.599Z,7.12
2018-02-03T02:13:53.534Z,7.55
2018-02-03T02:16:21.055Z,6.68
2018-02-03T02:18:47.273Z,7.18
2018-02-03T02:21:14.435Z,6.53
2018-02-03T02:23:41.138Z,7.00
2018-02-03T02:26:07.629Z,6.15
2018-02-03T02:28:34.461Z,6.55
2018-02-03T02:31:01.274Z,6.80
2018-02-03T02:33:27.474Z,8.05
2018-02-03T02:35:54.407Z,7.28
2018-02-03T02:38:20.603Z,7.95
2018-02-03T02:40:46.858Z,6.87
2018-02-03T02:43:13.739Z,8.07
2018-02-03T02:45:39.945Z,7.35
2018-02-03T02:48:07.012Z,8.93
2018-02-03T02:50:33.555Z,7.37
2018-02-03T02:53:01.370Z,7.90
2018-02-03T02:55:28.229Z,6.82
2018-02-03T02:57:54.546Z,6.60
2018-02-03T03:00:20.760Z,7.68
2018-02-03T03:02:46.937Z,6.93
2018-02-03T03:05:13.156Z,7.60
2018-02-03T03:07:40.646Z,7.03
2018-02-03T03:10:07.317Z,7.57
2018-02-03T03:12:34.553Z,6.75
2018-02-03T03:15:00.763Z,7.12
2018-02-03T03:17:27.653Z,6.40
2018-02-03T03:19:54.332Z,7.25
2018-02-03T03:22:21.111Z,7.03
2018-02-03T03:24:48.878Z,7.90
2018-02-03T03:27:16.096Z,6.78
2018-02-03T03:29:43.637Z,6.93
2018-02-03T03:32:09.862Z,6.10
2018-02-03T03:34:36.721Z,7.50
2018-02-03T03:37:03.315Z,7.68
2018-02-03T03:39:29.499Z,8.20
2018-02-03T03:41:56.416Z,8.90
2018-02-03T03:44:22.691Z,8.43
2018-02-03T03:46:49.159Z,9.13
2018-02-03T03:49:16.016Z,8.27
2018-02-03T03:51:42.891Z,9.82
2018-02-03T03:54:10.750Z,8.40
2018-02-03T03:56:38.397Z,8.80
2018-02-03T03:59:05.273Z,8.30
2018-02-03T04:01:32.422Z,8.25
2018-02-03T04:04:00.480Z,7.97
2018-02-03T04:06:26.686Z,7.25
2018-02-03T04:08:53.066Z,8.45
2018-02-03T04:11:20.063Z,8.80
2018-02-03T04:13:46.490Z,8.27
2018-02-03T04:16:13.867Z,7.40
2018-02-03T04:18:41.390Z,6.78
2018-02-03T04:21:08.574Z,8.55
2018-02-03T04:23:35.743Z,7.40
2018-02-03T04:26:02.770Z,8.95
2018-02-03T04:28:29.181Z,7.32
2018-02-03T04:30:56.862Z,8.10
2018-02-03T04:33:23.398Z,7.72
2018-02-03T04:35:50.670Z,7.00
2018-02-03T04:38:16.873Z,9.45
2018-02-03T04:40:44.479Z,7.70
2018-02-03T04:43:11.720Z,6.68
2018-02-03T04:45:38.937Z,7.45
2018-02-03T04:48:06.189Z,8.23
2018-02-03T04:50:33.197Z,7.20
2018-02-03T04:53:01.577Z,7.15
2018-02-03T04:55:28.573Z,8.18
2018-02-03T04:57:55.753Z,6.45
2018-02-03T05:00:22.231Z,6.40
2018-02-03T05:02:49.110Z,9.52
2018-02-03T05:05:16.190Z,9.60
2018-02-03T05:07:43.754Z,10.35
2018-02-03T05:10:10.220Z,9.10
2018-02-03T05:12:37.099Z,9.52
2018-02-03T05:15:04.167Z,11.68
2018-02-03T05:17:30.918Z,9.90
2018-02-03T05:19:57.725Z,9.95
2018-02-03T05:22:25.069Z,9.45
2018-02-03T05:24:51.275Z,11.88
2018-02-03T05:27:18.151Z,11.20
2018-02-03T05:29:45.898Z,11.20
2018-02-03T05:32:12.911Z,9.73
2018-02-03T05:34:39.248Z,10.35
2018-02-03T05:37:06.094Z,9.68
2018-02-03T05:39:32.310Z,9.07
2018-02-03T05:41:58.551Z,7.78
2018-02-03T05:44:28.121Z,8.00
2018-02-03T05:46:54.378Z,9.60
2018-02-03T05:49:20.715Z,9.27
2018-02-03T05:51:47.416Z,7.25
2018-02-03T05:54:14.395Z,6.93
2018-02-03T05:56:40.745Z,7.40
2018-02-03T05:59:08.921Z,6.90
2018-02-03T06:01:35.953Z,6.55
2018-02-03T06:04:02.165Z,8.10
2018-02-03T06:06:28.924Z,7.05
2018-02-03T06:08:57.445Z,6.95
2018-02-03T06:11:23.765Z,6.50
2018-02-03T06:13:50.983Z,6.55
2018-02-03T06:16:18.141Z,6.68
2018-02-03T06:18:44.820Z,7.30
2018-02-03T06:21:12.900Z,7.62
2018-02-03T06:23:40.136Z,6.80
2018-02-03T06:26:06.776Z,7.32
2018-02-03T06:28:34.292Z,8.23
2018-02-03T06:31:01.496Z,7.82
2018-02-03T06:33:29.257Z,7.62
2018-02-03T06:35:55.463Z,8.40
2018-02-03T06:38:21.876Z,8.10
2018-02-03T06:40:48.886Z,7.28
2018-02-03T06:43:15.952Z,8.55
2018-02-03T06:45:42.173Z,7.90
2018-02-03T06:48:09.337Z,9.70
2018-02-03T06:50:35.843Z,9.52
2018-02-03T06:53:03.059Z,7.70
2018-02-03T06:55:30.029Z,9.00
2018-02-03T06:57:57.028Z,8.68
2018-02-03T07:00:24.659Z,8.48
2018-02-03T07:02:51.697Z,7.22
2018-02-03T07:05:19.466Z,9.02
2018-02-03T07:07:45.687Z,7.50
2018-02-03T07:10:12.794Z,8.55
2018-02-03T07:12:40.741Z,8.88
2018-02-03T07:15:08.700Z,9.77
2018-02-03T07:17:34.958Z,9.30
2018-02-03T07:20:01.707Z,12.37
2018-02-03T07:22:28.475Z,10.45
2018-02-03T07:24:55.445Z,9.48
2018-02-03T07:27:22.858Z,8.85
2018-02-03T07:29:49.110Z,8.02
2018-02-03T07:32:16.836Z,8.98
2018-02-03T07:34:44.510Z,8.77
2018-02-03T07:37:11.326Z,9.88
2018-02-03T07:39:37.511Z,9.73
2018-02-03T07:42:03.973Z,8.65
2018-02-03T07:44:31.628Z,9.07
2018-02-03T07:46:58.615Z,9.40
2018-02-03T07:49:26.224Z,11.75
2018-02-03T07:51:53.277Z,13.95
2018-02-03T07:54:19.497Z,13.10
2018-02-03T07:56:45.728Z,13.75
2018-02-03T07:59:12.114Z,11.30
2018-02-03T08:01:38.757Z,10.75
2018-02-03T08:04:05.805Z,10.88
2018-02-03T08:06:32.830Z,12.27
2018-02-03T08:08:59.240Z,12.63
2018-02-03T08:11:26.914Z,12.00
2018-02-03T08:13:53.502Z,12.18
2018-02-03T08:16:21.160Z,10.13
2018-02-03T08:18:47.449Z,10.60
2018-02-03T08:21:14.332Z,10.98
2018-02-03T08:23:41.326Z,12.63
2018-02-03T08:26:08.547Z,11.10
2018-02-03T08:28:35.749Z,10.65
2018-02-03T08:31:02.600Z,12.43
2018-02-03T08:33:29.586Z,12.00
2018-02-03T08:35:56.277Z,11.30
2018-02-03T08:38:22.603Z,11.70
2018-02-03T08:40:48.798Z,11.85
2018-02-03T08:43:15.144Z,12.20
2018-02-03T08:45:41.387Z,11.23
2018-02-03T08:48:08.246Z,11.82
2018-02-03T08:50:35.534Z,12.27
2018-02-03T08:53:01.793Z,11.12
2018-02-03T08:55:29.042Z,11.38
2018-02-03T08:57:55.247Z,12.18
2018-02-03T09:00:21.551Z,12.05
2018-02-03T09:02:48.396Z,11.65
2018-02-03T09:05:15.658Z,12.32
2018-02-03T09:07:41.925Z,10.32
2018-02-03T09:10:08.538Z,11.48
2018-02-03T09:12:35.605Z,11.68
2018-02-03T09:15:02.045Z,11.35
2018-02-03T09:17:28.301Z,13.20
2018-02-03T09:19:54.556Z,10.23
2018-02-03T09:22:21.781Z,12.05
2018-02-03T09:24:48.773Z,13.43
2018-02-03T09:27:15.762Z,12.88
2018-02-03T09:29:42.179Z,13.70
2018-02-03T09:32:09.529Z,13.68
2018-02-03T09:34:35.768Z,12.35
2018-02-03T09:37:01.994Z,11.50
2018-02-03T09:39:28.306Z,14.00
2018-02-03T09:41:54.522Z,13.15
2018-02-03T09:44:20.766Z,12.82
2018-02-03T09:46:47.039Z,11.35
2018-02-03T09:49:14.410Z,11.73
2018-02-03T09:51:41.560Z,13.02
2018-02-03T09:54:07.835Z,12.45
2018-02-03T09:56:34.623Z,11.15
2018-02-03T09:59:02.177Z,11.52
2018-02-03T10:01:29.006Z,11.73
2018-02-03T10:03:56.202Z,10.68
2018-02-03T10:06:22.401Z,12.68
2018-02-03T10:08:49.930Z,12.15
2018-02-03T10:11:17.166Z,11.95
2018-02-03T10:13:43.392Z,12.02
2018-02-03T10:16:09.779Z,12.40
2018-02-03T10:18:37.548Z,12.55
2018-02-03T10:21:03.880Z,12.25
2018-02-03T10:23:30.515Z,11.23
2018-02-03T10:25:56.865Z,13.43
2018-02-03T10:28:24.588Z,13.40
2018-02-03T10:30:51.623Z,11.45
2018-02-03T10:33:17.840Z,13.27
2018-02-03T10:35:44.989Z,11.95
2018-02-03T10:38:12.607Z,11.82
2018-02-03T10:40:38.848Z,13.82
2018-02-03T10:43:05.072Z,13.52
2018-02-03T10:45:32.253Z,13.73
2018-02-03T10:47:58.629Z,13.62
2018-02-03T10:50:25.651Z,14.50
2018-02-03T10:52:53.667Z,13.38
2018-02-03T10:55:19.893Z,12.68
2018-02-03T10:57:46.137Z,14.55
2018-02-03T11:00:12.559Z,14.65
2018-02-03T11:02:39.579Z,13.85
2018-02-03T11:05:07.618Z,14.07
2018-02-03T11:07:34.919Z,14.23
2018-02-03T11:10:01.954Z,14.45
2018-02-03T11:12:28.177Z,13.70
2018-02-03T11:14:54.947Z,12.32
2018-02-03T11:17:21.756Z,11.85
2018-02-03T11:19:48.494Z,13.55
2018-02-03T11:22:15.922Z,11.48
2018-02-03T11:24:42.503Z,12.55
2018-02-03T11:27:08.944Z,11.98
2018-02-03T11:29:35.945Z,11.98
2018-02-03T11:32:03.808Z,10.80
2018-02-03T11:34:30.046Z,11.55
2018-02-03T11:36:57.568Z,12.40
2018-02-03T11:39:24.083Z,12.73
2018-02-03T11:41:50.273Z,10.20
2018-02-03T11:44:17.067Z,8.95
2018-02-03T11:46:44.285Z,9.15
2018-02-03T11:49:10.532Z,9.40
2018-02-03T11:51:36.774Z,10.00
2018-02-03T11:54:02.983Z,9.90
2018-02-03T11:56:29.223Z,9.57
2018-02-03T11:58:55.912Z,8.57
2018-02-03T12:01:23.071Z,9.18
2018-02-03T12:03:49.831Z,9.15
2018-02-03T12:06:16.224Z,10.52
2018-02-03T12:08:43.812Z,10.57
2018-02-03T12:11:10.726Z,9.30
2018-02-03T12:13:37.106Z,8.63
2018-02-03T12:16:04.473Z,9.50
2018-02-03T12:18:31.567Z,8.80
2018-02-03T12:20:59.723Z,8.98
2018-02-03T12:23:26.764Z,8.60
2018-02-03T12:25:53.929Z,9.68
2018-02-03T12:28:20.199Z,9.60
2018-02-03T12:30:47.069Z,10.43
2018-02-03T12:33:13.732Z,9.55
2018-02-03T12:35:40.823Z,10.18
2018-02-03T12:38:07.067Z,11.00
2018-02-03T12:40:33.269Z,9.20
2018-02-03T12:43:00.008Z,10.15
2018-02-03T12:45:26.499Z,10.40
2018-02-03T12:47:52.807Z,10.90
2018-02-03T12:50:19.017Z,11.23
2018-02-03T12:52:45.869Z,10.52
2018-02-03T12:55:12.209Z,9.55
2018-02-03T12:57:39.840Z,9.88
2018-02-03T13:00:06.078Z,9.60
2018-02-03T13:02:32.328Z,10.73
2018-02-03T13:04:58.656Z,9.45
2018-02-03T13:07:24.952Z,9.20
2018-02-03T13:09:51.864Z,10.05
2018-02-03T13:12:18.881Z,9.77
2018-02-03T13:14:45.181Z,8.90
2018-02-03T13:17:11.481Z,9.00
2018-02-03T13:19:38.555Z,9.90
2018-02-03T13:22:04.757Z,11.05
2018-02-03T13:24:32.192Z,10.23
2018-02-03T13:26:59.546Z,9.93
2018-02-03T13:29:25.863Z,10.43
2018-02-03T13:31:53.570Z,10.82
2018-02-03T13:34:21.406Z,10.27
2018-02-03T13:36:48.302Z,10.50
2018-02-03T13:39:15.117Z,9.98
2018-02-03T13:41:42.525Z,9.98
2018-02-03T13:44:08.736Z,8.27
2018-02-03T13:46:36.219Z,9.80
2018-02-03T13:49:02.430Z,9.30
2018-02-03T13:54:01.918Z,9.52
2018-02-03T13:56:29.055Z,9.48
2018-02-03T13:58:55.689Z,9.82
2018-02-03T14:01:22.549Z,11.73
2018-02-03T14:03:48.797Z,10.88
2018-02-03T14:06:15.654Z,9.77
2018-02-03T14:08:42.837Z,9.68
2018-02-03T14:11:10.084Z,11.18
2018-02-03T14:13:37.200Z,11.27
2018-02-03T14:16:04.018Z,31.98
2018-02-03T14:18:31.430Z,11.27
2018-02-03T14:20:58.624Z,10.38
2018-02-03T14:23:26.030Z,8.60
2018-02-03T14:26:07.920Z,10.02
2018-02-03T14:28:34.142Z,10.10
2018-02-03T14:31:00.529Z,10.02
2018-02-03T14:33:26.941Z,8.80
2018-02-03T14:35:53.172Z,5.10
2018-02-03T14:38:19.885Z,4.07
2018-02-03T14:40:47.262Z,3.12
2018-02-03T14:43:13.982Z,3.35
2018-02-03T14:45:41.550Z,2.85
2018-02-03T14:48:08.791Z,2.80
2018-02-03T14:50:35.483Z,3.17
2018-02-03T14:53:02.505Z,3.20
2018-02-03T14:55:29.267Z,3.37
2018-02-03T14:57:55.697Z,4.87
2018-02-03T15:00:22.796Z,4.12
2018-02-03T15:02:50.085Z,6.37
2018-02-03T15:05:17.052Z,3.95
2018-02-03T15:07:44.079Z,6.65
2018-02-03T15:10:10.400Z,7.10
2018-02-03T15:12:36.610Z,6.80
2018-02-03T15:15:04.770Z,10.55
2018-02-03T15:17:32.042Z,9.30
2018-02-03T15:19:59.467Z,7.35
2018-02-03T15:22:26.818Z,7.15
2018-02-03T15:24:54.006Z,9.27
2018-02-03T15:27:20.865Z,6.68
2018-02-03T15:29:47.068Z,6.68
2018-02-03T15:32:14.078Z,6.50
2018-02-03T15:34:40.950Z,5.93
2018-02-03T15:37:08.367Z,5.43
2018-02-03T15:39:36.339Z,6.20
2018-02-03T15:42:03.463Z,5.60
2018-02-03T15:44:30.362Z,6.20
2018-02-03T15:46:57.330Z,5.97
2018-02-03T15:49:24.166Z,6.95
2018-02-03T15:51:51.163Z,7.87
2018-02-03T15:54:17.616Z,8.77
2018-02-03T15:56:45.137Z,6.90
2018-02-03T15:59:12.038Z,9.07
2018-02-03T16:01:39.031Z,8.27
2018-02-03T16:04:05.792Z,6.80
2018-02-03T16:06:32.593Z,7.20
2018-02-03T16:08:59.011Z,8.52
2018-02-03T16:11:27.327Z,8.50
2018-02-03T16:13:53.509Z,8.40
2018-02-03T16:16:21.069Z,10.90
2018-02-03T16:18:49.056Z,9.75
2018-02-03T16:21:16.067Z,10.98
2018-02-03T16:23:43.249Z,12.43
2018-02-03T16:26:10.294Z,11.25
2018-02-03T16:28:36.525Z,9.93
2018-02-03T16:31:03.115Z,7.70
2018-02-03T16:33:29.375Z,10.60
2018-02-03T16:35:55.642Z,10.50
2018-02-03T16:38:22.276Z,11.25
2018-02-03T16:40:48.476Z,10.68
2018-02-03T16:43:14.662Z,11.00
2018-02-03T16:45:41.574Z,10.30
2018-02-03T16:48:08.374Z,13.68
2018-02-03T16:50:36.570Z,13.02
2018-02-03T16:53:03.588Z,10.85
2018-02-03T16:55:30.729Z,10.20
2018-02-03T16:57:58.516Z,9.98
2018-02-03T17:00:25.264Z,11.57
2018-02-03T17:02:51.450Z,11.18
2018-02-03T17:05:18.949Z,10.75
2018-02-03T17:07:45.290Z,12.20
2018-02-03T17:10:11.759Z,14.13
2018-02-03T17:12:39.946Z,14.02
2018-02-03T17:15:06.237Z,12.05
2018-02-03T17:17:33.501Z,17.12
2018-02-03T17:19:59.724Z,17.80
2018-02-03T17:22:26.154Z,17.33
2018-02-03T17:24:53.077Z,15.30
2018-02-03T17:27:19.870Z,14.23
2018-02-03T17:29:46.086Z,14.55
2018-02-03T17:32:13.305Z,16.37
2018-02-03T17:34:39.994Z,18.20
2018-02-03T17:37:12.888Z,18.05
2018-02-03T17:39:40.459Z,14.63
2018-02-03T17:42:07.549Z,13.43
2018-02-03T17:44:33.769Z,13.75
2018-02-03T17:47:01.975Z,10.20
2018-02-03T17:49:28.397Z,12.35
2018-02-03T17:51:55.614Z,13.40
2018-02-03T17:54:21.830Z,14.20
2018-02-03T17:56:54.608Z,12.85
2018-02-03T17:59:21.990Z,13.32
2018-02-03T18:01:48.757Z,16.92
2018-02-03T18:04:16.148Z,17.27
2018-02-03T18:06:50.114Z,16.23
2018-02-03T18:09:16.404Z,16.77
2018-02-03T18:11:43.305Z,18.83
2018-02-03T18:14:10.117Z,22.30
2018-02-03T18:16:36.337Z,16.00
2018-02-03T18:19:02.547Z,20.98
2018-02-03T18:21:29.133Z,15.40
2018-02-03T18:23:56.135Z,15.70
2018-02-03T18:26:22.352Z,16.40
2018-02-03T18:38:34.274Z,16.37
2018-02-03T18:41:00.874Z,13.73
2018-02-03T18:43:28.174Z,18.08
2018-02-03T18:45:55.502Z,18.52
2018-02-03T18:48:22.546Z,18.00
2018-02-03T18:50:49.044Z,15.73
2018-02-03T18:53:15.764Z,16.62
2018-02-03T18:55:42.402Z,16.55
2018-02-03T18:58:09.827Z,17.90
2018-02-03T19:00:37.770Z,16.62
2018-02-03T19:03:05.194Z,12.70
2018-02-03T19:05:31.924Z,12.95
2018-02-03T19:07:58.689Z,12.15
2018-02-03T19:10:24.899Z,13.77
2018-02-03T19:12:51.235Z,14.55
2018-02-03T19:15:18.089Z,14.55
2018-02-03T19:17:44.399Z,12.98
2018-02-03T19:20:11.098Z,14.32
2018-02-03T19:22:37.578Z,14.82
2018-02-03T19:25:03.786Z,14.05
2018-02-03T19:27:31.172Z,14.45
2018-02-03T19:29:57.445Z,15.70
2018-02-03T19:32:26.058Z,16.42
2018-02-03T19:34:52.282Z,12.07
2018-02-03T19:37:18.740Z,14.65
2018-02-03T19:39:45.408Z,14.90
2018-02-03T19:42:12.399Z,13.75
2018-02-03T19:44:39.823Z,13.07
2018-02-03T19:47:06.652Z,13.45
2018-02-03T19:49:33.829Z,14.35
2018-02-03T19:52:00.828Z,14.98
2018-02-03T19:54:27.082Z,15.25
2018-02-03T19:56:53.732Z,14.00
2018-02-03T19:59:21.746Z,12.43
2018-02-03T20:01:48.829Z,13.88
2018-02-03T20:04:15.096Z,12.30
2018-02-03T20:06:42.620Z,15.80
2018-02-03T20:09:08.993Z,12.40
2018-02-03T20:11:36.555Z,12.95
2018-02-03T20:14:02.878Z,11.25
2018-02-03T20:16:29.821Z,11.75
2018-02-03T20:18:57.435Z,14.50
2018-02-03T20:21:25.000Z,15.38
2018-02-03T20:23:51.229Z,14.40
2018-02-03T20:26:17.913Z,15.20
2018-02-03T20:28:45.189Z,15.63
2018-02-03T20:31:12.726Z,12.82
2018-02-03T20:33:38.952Z,14.05
2018-02-03T20:36:05.213Z,14.90
2018-02-03T20:38:31.486Z,14.15
2018-02-03T20:40:58.177Z,13.70
2018-02-03T20:43:25.320Z,11.80
2018-02-03T20:45:53.082Z,11.07
2018-02-03T20:48:19.512Z,14.80
2018-02-03T20:50:45.766Z,12.10
2018-02-03T20:53:12.592Z,15.25
2018-02-03T20:55:38.875Z,15.98
2018-02-03T20:58:06.901Z,11.88
2018-02-03T21:00:33.130Z,13.40
2018-02-03T21:02:59.901Z,14.25
2018-02-03T21:05:26.855Z,14.77
2018-02-03T21:07:54.694Z,15.95
2018-02-03T21:10:21.430Z,15.20
2018-02-03T21:12:48.278Z,13.90
2018-02-03T21:15:15.314Z,13.70
2018-02-03T21:17:41.574Z,16.15
2018-02-03T21:20:08.075Z,12.90
2018-02-03T21:22:35.058Z,13.90
2018-02-03T21:25:02.035Z,12.35
2018-02-03T21:27:28.261Z,15.55
2018-02-03T21:29:55.412Z,16.55
2018-02-03T21:32:22.704Z,15.50
2018-02-03T21:34:49.736Z,13.00
2018-02-03T21:37:16.474Z,13.50
2018-02-03T21:39:43.148Z,14.40
2018-02-03T21:42:10.782Z,12.73
2018-02-03T21:44:37.018Z,14.20
2018-02-03T21:47:03.223Z,13.90
2018-02-03T21:49:29.747Z,15.13
2018-02-03T21:51:55.952Z,12.43
2018-02-03T21:54:22.717Z,13.13
2018-02-03T21:56:49.506Z,14.45
2018-02-03T21:59:15.696Z,14.48
2018-02-03T22:01:42.870Z,14.32
2018-02-03T22:04:10.847Z,12.10
2018-02-03T22:06:37.839Z,16.85
2018-02-03T22:09:04.608Z,15.90
2018-02-03T22:11:31.594Z,14.45
2018-02-03T22:13:59.127Z,14.77
2018-02-03T22:16:25.597Z,15.35
2018-02-03T22:18:53.229Z,14.60
2018-02-03T22:21:19.459Z,16.15
2018-02-03T22:23:45.671Z,14.98
2018-02-03T22:26:12.963Z,14.63
2018-02-03T22:28:39.877Z,14.85
2018-02-03T22:31:06.520Z,16.65
2018-02-03T22:33:32.801Z,16.70
2018-02-03T22:35:59.624Z,16.45
2018-02-03T22:38:26.937Z,14.82
2018-02-03T22:40:54.340Z,15.32
2018-02-03T22:43:20.565Z,13.52
2018-02-03T22:45:46.790Z,13.20
2018-02-03T22:48:13.561Z,14.25
2018-02-03T22:50:41.510Z,14.32
2018-02-03T22:53:09.065Z,16.10
2018-02-03T22:55:35.450Z,15.52
2018-02-03T22:58:02.261Z,14.38
2018-02-03T23:00:28.600Z,14.77
2018-02-03T23:02:58.784Z,16.83
2018-02-03T23:05:26.610Z,16.98
2018-02-03T23:07:53.824Z,18.67
2018-02-03T23:10:20.836Z,16.15
2018-02-03T23:12:47.888Z,17.52
2018-02-03T23:15:14.201Z,17.58
2018-02-03T23:17:41.727Z,19.30
2018-02-03T23:20:08.889Z,14.82
2018-02-03T23:22:35.167Z,14.98
2018-02-03T23:25:01.577Z,14.75
2018-02-03T23:27:29.116Z,16.05
2018-02-03T23:29:56.105Z,14.68
2018-02-03T23:32:23.271Z,18.58
2018-02-03T23:34:50.004Z,14.27
2018-02-03T23:37:16.828Z,15.45
2018-02-03T23:39:43.332Z,15.60
2018-02-03T23:42:10.545Z,17.10
2018-02-03T23:44:37.565Z,17.30
2018-02-03T23:47:03.947Z,20.92
2018-02-03T23:49:30.162Z,20.17
2018-02-03T23:51:56.341Z,17.98
2018-02-03T23:54:23.174Z,16.15
2018-02-03T23:56:50.014Z,19.10
2018-02-03T23:59:17.532Z,16.37
